»·PEaware :: BADGR13 KPDX-KSEA

BADGR13 :: KPDX-KSEA

FLIGHT INFORMATION

Flight Status: Arrived
Operator: Unknown
More flights by this operator :: More flights under this callsign
Pilot: Abraham G. (22221)
Aircraft: BEECH AIRCRAFT T-6A TEXAN
(TEX2)
More flights by this aircraft type
Origin: KPDX Portland Intl
United States
Destination: KSEA Seattle-Tacoma Intl
United States
More flights between these airports :: More routes between these airports
Route: +PTLD1 BTG OLM2
File this flight plan on PilotEdge
Remarks:
Altitude:
(Current/Filed)
12,000ft
Speed:
(Current/Filed)
258kts
Departed: 19-Jun-20 07:21 AM
Arrived: 19-Jun-20 07:59 AM
Distance/Time
Traveled:
112nm/0:38
Distance/Time
To Go:
Arrived

Flight Plot

Page will automatically refresh every two minutes.


Map Options




Map Legend


Flown Route
Filed Route
Departure Airport
Arrival Airport
Navaid (VOR, NDB)
Fix

Horizontal Profiles

Position Reports

Time Latitude Longitude Heading Altitude Ground
Speed
19-Jun-20 06:53 45.587430 -122.583528 207 21ft 0kts
19-Jun-20 06:54 45.587430 -122.583528 207 21ft 0kts
19-Jun-20 06:55 45.587430 -122.583528 207 21ft 0kts
19-Jun-20 06:56 45.587430 -122.583528 207 21ft 0kts
19-Jun-20 06:57 45.587430 -122.583528 207 21ft 0kts
19-Jun-20 06:58 45.587430 -122.583528 207 21ft 0kts
19-Jun-20 06:59 45.587430 -122.583528 207 21ft 0kts
19-Jun-20 07:00 45.587430 -122.583528 207 21ft 0kts
19-Jun-20 07:01 45.587430 -122.583528 207 21ft 0kts
19-Jun-20 07:02 45.587430 -122.583528 207 21ft 0kts
19-Jun-20 07:03 45.587430 -122.583528 207 21ft 0kts
19-Jun-20 07:04 45.587430 -122.583528 207 21ft 0kts
19-Jun-20 07:05 45.587430 -122.583528 207 21ft 0kts
19-Jun-20 07:06 45.587430 -122.583528 207 21ft 0kts
19-Jun-20 07:07 45.587430 -122.583528 207 21ft 0kts
19-Jun-20 07:08 45.587430 -122.583528 207 21ft 0kts
19-Jun-20 07:09 45.587430 -122.583528 207 21ft 0kts
19-Jun-20 07:10 45.587430 -122.583528 207 21ft 0kts
19-Jun-20 07:11 45.587430 -122.583528 207 21ft 0kts
19-Jun-20 07:12 45.587430 -122.583528 207 21ft 0kts
19-Jun-20 07:13 45.587624 -122.582994 25 21ft 5kts
19-Jun-20 07:14 45.589107 -122.584230 300 21ft 8kts
19-Jun-20 07:15 45.590566 -122.588009 297 21ft 12kts
19-Jun-20 07:16 45.592425 -122.592758 299 21ft 12kts
19-Jun-20 07:17 45.594185 -122.597331 294 24ft 10kts
19-Jun-20 07:18 45.594473 -122.597481 42 24ft 0kts
19-Jun-20 07:19 45.594479 -122.597473 44 24ft 1kts
19-Jun-20 07:20 45.590289 -122.583329 118 196ft 127kts
19-Jun-20 07:21 45.588018 -122.519114 75 2534ft 191kts
19-Jun-20 07:22 45.628954 -122.523726 334 6181ft 174kts
19-Jun-20 07:23 45.673418 -122.552231 341 9850ft 178kts
19-Jun-20 07:24 45.724006 -122.579438 334 12030ft 238kts
19-Jun-20 07:25 45.794104 -122.605755 345 12019ft 265kts
19-Jun-20 07:26 45.869024 -122.624907 349 12001ft 269kts
19-Jun-20 07:27 45.943153 -122.643774 349 11958ft 269kts
19-Jun-20 07:28 46.016891 -122.660253 349 12033ft 267kts
19-Jun-20 07:29 46.090098 -122.680987 348 12017ft 268kts
19-Jun-20 07:30 46.163171 -122.701622 348 12006ft 266kts
19-Jun-20 07:31 46.238739 -122.722427 347 11992ft 268kts
19-Jun-20 07:32 46.314838 -122.742352 350 12044ft 265kts
19-Jun-20 07:33 46.391733 -122.758057 350 12009ft 266kts
19-Jun-20 07:34 46.468467 -122.771156 353 11985ft 267kts
19-Jun-20 07:35 46.545865 -122.777878 348 12023ft 266kts
19-Jun-20 07:36 46.620954 -122.803147 347 12060ft 265kts
19-Jun-20 07:37 46.697352 -122.822610 350 12033ft 266kts
19-Jun-20 07:38 46.773449 -122.842438 348 12038ft 266kts
19-Jun-20 07:39 46.847824 -122.866853 343 12090ft 266kts
19-Jun-20 07:40 46.922931 -122.887785 352 12007ft 268kts
19-Jun-20 07:41 46.996559 -122.881393 42 11938ft 273kts
19-Jun-20 07:42 47.047920 -122.801621 35 12022ft 269kts
19-Jun-20 07:43 47.105990 -122.731595 41 12010ft 271kts
19-Jun-20 07:44 47.164151 -122.661604 36 12008ft 270kts
19-Jun-20 07:45 47.220015 -122.587928 44 12014ft 272kts
19-Jun-20 07:46 47.272484 -122.507250 45 12008ft 272kts
19-Jun-20 07:47 47.336867 -122.450687 2 11116ft 289kts
19-Jun-20 07:48 47.412990 -122.452214 358 8818ft 264kts
19-Jun-20 07:49 47.485604 -122.449887 1 6123ft 253kts
19-Jun-20 07:50 47.550487 -122.449717 357 3916ft 220kts
19-Jun-20 07:51 47.614416 -122.451137 0 2994ft 221kts
19-Jun-20 07:52 47.655065 -122.413432 98 2920ft 210kts
19-Jun-20 07:54 47.614165 -122.362427 144 2985ft 185kts
19-Jun-20 07:55 47.569511 -122.316587 143 2595ft 204kts
19-Jun-20 07:56 47.518392 -122.307001 179 1508ft 163kts
19-Jun-20 07:57 47.481513 -122.307623 178 826ft 127kts
19-Jun-20 07:58 47.451877 -122.307861 180 414ft 64kts
19-Jun-20 07:59 47.444198 -122.306316 179 387ft 25kts
19-Jun-20 08:00 47.436809 -122.306407 171 362ft 27kts

Navigation Log

Ident Type
Flight plan parsing failed, navigation log unavailable